createdAt,value
2018-09-09T00:02:01.793Z,74.23
2018-09-09T00:04:31.194Z,74.47
2018-09-09T00:07:00.493Z,74.67
2018-09-09T00:09:35.142Z,74.85
2018-09-09T00:12:04.600Z,75.02
2018-09-09T00:14:34.985Z,75.15
2018-09-09T00:17:04.305Z,75.63
2018-09-09T00:19:33.629Z,75.78
2018-09-09T00:22:03.106Z,76.08
2018-09-09T00:24:32.438Z,76.10
2018-09-09T00:27:01.800Z,76.13
2018-09-09T00:29:31.093Z,76.32
2018-09-09T00:32:00.812Z,76.74
2018-09-09T00:34:30.194Z,76.75
2018-09-09T00:36:59.495Z,76.64
2018-09-09T00:39:29.080Z,76.66
2018-09-09T00:41:58.416Z,76.97
2018-09-09T00:44:27.826Z,77.06
2018-09-09T00:46:57.220Z,76.85
2018-09-09T00:49:32.173Z,77.08
2018-09-09T00:52:07.012Z,77.32
2018-09-09T00:54:36.420Z,77.52
2018-09-09T00:57:05.957Z,77.66
2018-09-09T00:59:35.366Z,77.70
2018-09-09T01:02:05.670Z,78.12
2018-09-09T01:04:35.595Z,78.06
2018-09-09T01:07:05.005Z,78.10
2018-09-09T01:09:34.729Z,78.31
2018-09-09T01:12:04.772Z,78.15
2018-09-09T01:14:34.871Z,78.52
2018-09-09T01:17:04.146Z,78.36
2018-09-09T01:19:33.479Z,78.40
2018-09-09T01:22:03.090Z,78.07
2018-09-09T01:24:32.703Z,78.42
2018-09-09T01:27:02.011Z,78.76
2018-09-09T01:29:31.778Z,78.95
2018-09-09T01:32:01.129Z,79.29
2018-09-09T01:34:30.406Z,79.47
2018-09-09T01:36:59.809Z,79.85
2018-09-09T01:39:29.129Z,79.42
2018-09-09T01:41:58.584Z,80.10
2018-09-09T01:44:28.042Z,79.53
2018-09-09T01:46:57.345Z,80.65
2018-09-09T01:49:26.746Z,79.45
2018-09-09T01:51:56.222Z,79.96
2018-09-09T01:54:25.643Z,79.82
2018-09-09T01:56:55.206Z,79.87
2018-09-09T01:59:24.644Z,80.18
2018-09-09T02:01:54.475Z,79.65
2018-09-09T02:04:23.926Z,79.10
2018-09-09T02:06:53.840Z,79.39
2018-09-09T02:09:23.286Z,78.84
2018-09-09T02:11:52.863Z,78.91
2018-09-09T02:14:22.386Z,79.16
2018-09-09T02:16:51.965Z,79.29
2018-09-09T02:19:21.367Z,79.47
2018-09-09T02:21:50.896Z,79.16
2018-09-09T02:24:20.297Z,79.73
2018-09-09T02:26:49.701Z,79.36
2018-09-09T02:29:19.741Z,79.74
2018-09-09T02:31:50.273Z,79.93
2018-09-09T02:34:19.734Z,79.86
2018-09-09T02:36:49.177Z,80.11
2018-09-09T02:39:18.665Z,80.21
2018-09-09T02:41:47.999Z,79.51
2018-09-09T02:44:17.266Z,80.00
2018-09-09T02:46:46.632Z,79.57
2018-09-09T02:49:15.854Z,79.71
2018-09-09T02:51:45.724Z,79.75
2018-09-09T02:54:15.055Z,80.22
2018-09-09T02:56:44.765Z,80.43
2018-09-09T02:59:14.268Z,80.55
2018-09-09T03:01:44.287Z,81.20
2018-09-09T03:04:13.497Z,81.29
2018-09-09T03:06:42.831Z,81.57
2018-09-09T03:09:12.187Z,81.37
2018-09-09T03:11:41.413Z,82.55
2018-09-09T03:14:11.498Z,82.07
2018-09-09T03:16:40.739Z,81.92
2018-09-09T03:19:10.020Z,81.88
2018-09-09T03:21:39.660Z,82.25
2018-09-09T03:24:08.911Z,82.44
2018-09-09T03:26:38.209Z,82.56
2018-09-09T03:29:08.157Z,82.61
2018-09-09T03:31:37.577Z,83.05
2018-09-09T03:34:07.149Z,81.88
2018-09-09T03:36:37.763Z,82.62
2018-09-09T03:39:09.071Z,82.45
2018-09-09T03:41:38.829Z,82.02
2018-09-09T03:44:08.125Z,81.86
2018-09-09T03:46:37.465Z,82.07
2018-09-09T03:49:06.833Z,81.71
2018-09-09T03:51:36.553Z,82.36
2018-09-09T03:54:05.856Z,81.70
2018-09-09T03:56:36.359Z,81.52
2018-09-09T03:59:05.870Z,82.24
2018-09-09T04:01:35.077Z,82.73
2018-09-09T04:04:04.773Z,82.06
2018-09-09T04:06:33.993Z,82.15
2018-09-09T04:09:03.390Z,82.92
2018-09-09T04:11:33.536Z,81.47
2018-09-09T04:14:02.820Z,81.42
2018-09-09T04:16:32.078Z,82.44
2018-09-09T04:19:01.806Z,82.35
2018-09-09T04:21:31.061Z,82.33
2018-09-09T04:24:00.317Z,81.56
2018-09-09T04:26:30.157Z,81.57
2018-09-09T04:28:59.459Z,82.12
2018-09-09T04:31:28.820Z,82.91
2018-09-09T04:33:58.778Z,82.46
2018-09-09T04:36:28.177Z,82.18
2018-09-09T04:38:57.496Z,81.86
2018-09-09T04:41:26.841Z,82.51
2018-09-09T04:43:56.521Z,82.41
2018-09-09T04:46:25.879Z,81.10
2018-09-09T04:48:56.114Z,81.40
2018-09-09T04:51:25.634Z,81.55
2018-09-09T04:53:54.980Z,81.42
2018-09-09T04:56:25.080Z,81.48
2018-09-09T04:58:54.854Z,81.06
2018-09-09T05:01:24.326Z,81.40
2018-09-09T05:03:53.857Z,80.54
2018-09-09T05:06:23.406Z,80.10
2018-09-09T05:08:53.097Z,80.14
2018-09-09T05:11:22.654Z,80.49
2018-09-09T05:13:52.597Z,80.33
2018-09-09T05:16:22.584Z,80.93
2018-09-09T05:18:53.320Z,81.23
2018-09-09T05:21:23.025Z,81.39
2018-09-09T05:23:52.493Z,81.97
2018-09-09T05:26:22.647Z,81.45
2018-09-09T05:28:52.403Z,81.34
2018-09-09T05:31:22.624Z,82.10
2018-09-09T05:33:52.240Z,81.76
2018-09-09T05:36:22.380Z,81.67
2018-09-09T05:38:52.725Z,81.38
2018-09-09T05:41:22.949Z,81.47
2018-09-09T05:43:52.880Z,80.65
2018-09-09T05:46:23.105Z,80.67
2018-09-09T05:48:53.566Z,80.52
2018-09-09T05:51:23.557Z,80.29
2018-09-09T05:53:53.212Z,79.92
2018-09-09T05:56:24.254Z,79.87
2018-09-09T05:58:53.910Z,79.93
2018-09-09T06:01:23.682Z,79.70
2018-09-09T06:03:54.348Z,79.45
2018-09-09T06:06:24.875Z,79.50
2018-09-09T06:08:54.939Z,79.69
2018-09-09T06:11:24.554Z,79.60
2018-09-09T06:13:54.584Z,79.87
2018-09-09T06:16:24.065Z,80.98
2018-09-09T06:18:53.972Z,80.91
2018-09-09T06:21:23.748Z,80.86
2018-09-09T06:23:53.370Z,81.02
2018-09-09T06:26:23.065Z,80.70
2018-09-09T06:28:52.685Z,80.57
2018-09-09T06:31:22.215Z,80.28
2018-09-09T06:33:51.775Z,79.31
2018-09-09T06:36:21.497Z,79.34
2018-09-09T06:38:51.703Z,78.83
2018-09-09T06:41:21.356Z,78.29
2018-09-09T06:43:51.241Z,77.63
2018-09-09T06:46:21.800Z,76.57
2018-09-09T06:48:52.645Z,75.84
2018-09-09T06:51:22.275Z,75.83
2018-09-09T06:53:52.981Z,75.49
2018-09-09T06:56:22.661Z,75.25
2018-09-09T06:58:52.374Z,74.52
2018-09-09T07:01:22.251Z,73.73
2018-09-09T07:03:52.457Z,73.41
2018-09-09T07:06:22.049Z,72.53
2018-09-09T07:08:51.677Z,72.49
2018-09-09T07:11:21.529Z,72.37
2018-09-09T07:13:51.327Z,71.94
2018-09-09T07:16:21.010Z,71.62
2018-09-09T07:18:51.945Z,71.62
2018-09-09T07:21:22.432Z,71.68
2018-09-09T07:23:52.270Z,71.97
2018-09-09T07:26:22.053Z,71.27
2018-09-09T07:28:51.533Z,71.27
2018-09-09T07:31:21.426Z,71.21
2018-09-09T07:33:53.235Z,71.75
2018-09-09T07:36:23.073Z,71.26
2018-09-09T07:38:52.729Z,70.47
2018-09-09T07:41:22.641Z,70.70
2018-09-09T07:43:53.067Z,70.42
2018-09-09T07:46:22.904Z,70.86
2018-09-09T07:48:52.930Z,70.78
2018-09-09T07:51:22.529Z,70.34
2018-09-09T07:53:52.270Z,70.18
2018-09-09T07:56:21.922Z,69.23
2018-09-09T07:58:52.531Z,69.48
2018-09-09T08:01:22.509Z,69.68
2018-09-09T08:03:52.559Z,69.44
2018-09-09T08:06:22.304Z,69.19
2018-09-09T08:08:51.967Z,69.67
2018-09-09T08:11:22.748Z,70.15
2018-09-09T08:13:52.479Z,70.09
2018-09-09T08:16:22.069Z,70.12
2018-09-09T08:18:52.318Z,69.09
2018-09-09T08:21:23.073Z,68.33
2018-09-09T08:23:52.809Z,68.73
2018-09-09T08:26:22.766Z,67.82
2018-09-09T08:28:52.523Z,67.25
2018-09-09T08:31:23.122Z,68.15
2018-09-09T08:33:54.720Z,68.37
2018-09-09T08:36:24.936Z,66.26
2018-09-09T08:38:54.905Z,66.28
2018-09-09T08:41:24.712Z,65.42
2018-09-09T08:43:55.737Z,66.22
2018-09-09T08:46:26.399Z,66.00
2018-09-09T08:48:55.927Z,65.24
2018-09-09T08:51:26.915Z,64.44
2018-09-09T08:53:56.996Z,65.95
2018-09-09T08:56:26.540Z,66.38
2018-09-09T08:58:56.142Z,66.38
2018-09-09T09:01:26.568Z,65.49
2018-09-09T09:03:57.030Z,64.01
2018-09-09T09:06:26.498Z,62.82
2018-09-09T09:08:57.542Z,60.31
2018-09-09T09:11:28.822Z,57.74
2018-09-09T09:13:59.365Z,55.86
2018-09-09T09:16:29.451Z,54.62
2018-09-09T09:18:59.370Z,53.49
2018-09-09T09:21:29.569Z,51.72
2018-09-09T09:24:01.367Z,50.04
2018-09-09T09:26:31.890Z,50.31
2018-09-09T09:29:01.290Z,50.46
2018-09-09T09:31:31.076Z,51.19
2018-09-09T09:34:05.738Z,52.58
2018-09-09T09:36:40.877Z,50.80
2018-09-09T09:39:10.255Z,50.71
2018-09-09T09:41:40.055Z,48.32
2018-09-09T09:44:09.517Z,46.93
2018-09-09T09:46:39.156Z,45.39
2018-09-09T09:49:08.453Z,45.01
2018-09-09T09:51:37.720Z,44.28
2018-09-09T09:54:07.890Z,44.37
2018-09-09T09:56:37.097Z,45.98
2018-09-09T09:59:06.413Z,48.18
2018-09-09T10:01:35.822Z,49.31
2018-09-09T10:04:05.325Z,51.09
2018-09-09T10:06:34.708Z,51.18
2018-09-09T10:09:05.084Z,52.16
2018-09-09T10:11:34.325Z,53.44
2018-09-09T10:14:03.717Z,53.75
2018-09-09T10:16:33.156Z,54.88
2018-09-09T10:19:02.590Z,53.78
2018-09-09T10:21:31.999Z,52.90
2018-09-09T10:24:02.353Z,53.38
2018-09-09T10:26:32.123Z,52.87
2018-09-09T10:29:01.772Z,52.50
2018-09-09T10:31:31.191Z,53.35
2018-09-09T10:34:00.953Z,53.49
2018-09-09T10:36:30.699Z,53.33
2018-09-09T10:39:00.065Z,52.95
2018-09-09T10:41:29.561Z,51.78
2018-09-09T10:43:59.103Z,53.97
2018-09-09T10:46:29.410Z,54.99
2018-09-09T10:49:01.291Z,56.25
2018-09-09T10:51:30.774Z,56.14
2018-09-09T10:54:01.862Z,55.51
2018-09-09T10:56:32.104Z,53.91
2018-09-09T10:59:01.427Z,53.62
2018-09-09T11:01:31.357Z,53.15
2018-09-09T11:04:08.566Z,53.26
2018-09-09T11:06:41.191Z,53.43
2018-09-09T11:09:12.178Z,53.36
2018-09-09T11:11:42.130Z,52.90
2018-09-09T11:14:13.363Z,53.33
2018-09-09T11:16:45.067Z,53.32
2018-09-09T11:19:14.633Z,52.98
2018-09-09T11:21:45.260Z,53.18
2018-09-09T11:24:16.433Z,53.37
2018-09-09T11:26:46.496Z,53.38
2018-09-09T11:29:15.967Z,52.88
2018-09-09T11:31:46.552Z,52.14
2018-09-09T11:34:16.885Z,52.71
2018-09-09T11:36:46.911Z,51.49
2018-09-09T11:39:16.990Z,50.29
2018-09-09T11:41:46.274Z,47.88
2018-09-09T11:44:17.079Z,46.27
2018-09-09T11:46:46.572Z,45.50
2018-09-09T11:49:15.832Z,45.09
2018-09-09T11:51:46.055Z,42.43
2018-09-09T11:54:15.540Z,41.99
2018-09-09T11:56:44.758Z,41.05
2018-09-09T11:59:16.285Z,42.54
2018-09-09T12:01:46.392Z,44.53
2018-09-09T12:04:17.890Z,44.86
2018-09-09T12:06:47.219Z,45.23
2018-09-09T12:09:16.486Z,43.77
2018-09-09T12:11:46.188Z,40.91
2018-09-09T12:14:16.620Z,39.93
2018-09-09T12:16:49.588Z,39.11
2018-09-09T12:19:20.021Z,38.84
2018-09-09T12:21:49.626Z,38.10
2018-09-09T12:24:19.993Z,38.14
2018-09-09T12:26:49.749Z,37.71
2018-09-09T12:29:19.244Z,37.96
2018-09-09T12:31:49.270Z,39.97
2018-09-09T12:34:19.245Z,41.40
2018-09-09T12:36:48.652Z,40.74
2018-09-09T12:39:18.066Z,39.55
2018-09-09T12:41:48.651Z,36.80
2018-09-09T12:44:24.657Z,37.00
2018-09-09T12:49:59.403Z,36.81
2018-09-09T12:52:29.650Z,36.41
2018-09-09T12:55:00.894Z,35.99
2018-09-09T12:57:32.278Z,35.81
2018-09-09T13:00:03.006Z,36.93
2018-09-09T13:02:32.429Z,38.26
2018-09-09T13:05:01.952Z,37.14
2018-09-09T13:07:31.665Z,36.34
2018-09-09T13:10:01.867Z,35.30
2018-09-09T13:12:36.446Z,35.16
2018-09-09T13:15:07.474Z,34.09
2018-09-09T13:17:36.858Z,35.45
2018-09-09T13:20:08.174Z,36.06
2018-09-09T13:22:39.245Z,35.94
2018-09-09T13:25:14.048Z,36.49
2018-09-09T13:30:43.037Z,32.70
2018-09-09T13:33:15.133Z,32.59
2018-09-09T13:35:46.505Z,31.44
2018-09-09T13:38:15.997Z,33.57
2018-09-09T13:40:45.496Z,34.01
2018-09-09T13:43:16.143Z,33.39
2018-09-09T13:45:45.442Z,35.05
2018-09-09T13:48:14.777Z,35.83
2018-09-09T13:50:44.510Z,36.40
2018-09-09T13:53:13.858Z,38.45
2018-09-09T13:55:43.218Z,38.91
2018-09-09T13:58:14.268Z,40.79
2018-09-09T14:00:43.705Z,39.68
2018-09-09T14:03:13.047Z,39.90
2018-09-09T14:05:42.863Z,38.72
2018-09-09T14:08:12.420Z,38.51
2018-09-09T14:10:41.829Z,38.95
2018-09-09T14:13:11.173Z,41.06
2018-09-09T14:15:40.560Z,40.16
2018-09-09T14:18:09.903Z,40.29
2018-09-09T14:20:39.664Z,40.10
2018-09-09T14:23:09.015Z,40.01
2018-09-09T14:25:39.399Z,40.62
2018-09-09T14:28:08.892Z,41.62
2018-09-09T14:30:38.175Z,41.97
2018-09-09T14:33:07.789Z,42.63
2018-09-09T14:35:37.139Z,42.54
2018-09-09T14:38:06.754Z,43.02
2018-09-09T14:40:36.243Z,44.24
2018-09-09T14:43:08.277Z,43.71
2018-09-09T14:45:37.552Z,45.55
2018-09-09T14:48:06.855Z,46.31
2018-09-09T14:50:36.889Z,46.17
2018-09-09T14:53:06.401Z,45.19
2018-09-09T14:55:35.594Z,45.07
2018-09-09T14:58:05.147Z,45.59
2018-09-09T15:00:37.245Z,45.77
2018-09-09T15:03:06.983Z,46.32
2018-09-09T15:05:36.409Z,47.48
2018-09-09T15:08:05.912Z,46.65
2018-09-09T15:10:37.263Z,47.06
2018-09-09T15:13:06.825Z,47.38
2018-09-09T15:15:46.161Z,49.37
2018-09-09T15:18:17.978Z,49.63
2018-09-09T15:20:50.557Z,49.36
2018-09-09T15:23:23.245Z,51.04
2018-09-09T15:25:55.801Z,51.62
2018-09-09T15:28:25.547Z,52.21
2018-09-09T15:30:55.374Z,52.77
2018-09-09T15:33:28.031Z,52.72
2018-09-09T15:35:57.964Z,52.89
2018-09-09T15:38:29.162Z,53.54
2018-09-09T15:41:00.570Z,53.72
2018-09-09T15:43:32.809Z,54.47
2018-09-09T15:46:16.974Z,55.19
2018-09-09T15:48:46.361Z,54.48
2018-09-09T15:51:16.681Z,55.65
2018-09-09T15:53:45.987Z,56.68
2018-09-09T15:56:15.363Z,56.51
2018-09-09T15:58:44.864Z,55.81
2018-09-09T16:01:14.502Z,55.75
2018-09-09T16:03:43.873Z,55.76
2018-09-09T16:06:13.149Z,56.03
2018-09-09T16:08:42.440Z,56.69
2018-09-09T16:11:12.593Z,56.98
2018-09-09T16:13:44.178Z,56.67
2018-09-09T16:16:14.062Z,57.43
2018-09-09T16:18:44.328Z,57.41
2018-09-09T16:21:14.712Z,58.83
2018-09-09T16:23:44.580Z,58.88
2018-09-09T16:26:21.560Z,58.84
2018-09-09T16:28:53.750Z,58.01
2018-09-09T16:31:23.868Z,57.89
2018-09-09T16:33:55.499Z,58.05
2018-09-09T16:36:27.618Z,59.15
2018-09-09T16:38:59.657Z,59.68
2018-09-09T16:41:30.993Z,59.64
2018-09-09T16:44:00.456Z,59.45
2018-09-09T16:46:29.945Z,59.63
2018-09-09T16:49:02.677Z,59.58
2018-09-09T16:51:33.573Z,59.99
2018-09-09T16:54:03.607Z,59.55
2018-09-09T16:56:33.584Z,59.95
2018-09-09T17:01:52.841Z,59.81
2018-09-09T17:04:41.497Z,59.25
2018-09-09T17:07:12.886Z,60.30
2018-09-09T17:09:42.610Z,60.64
2018-09-09T17:12:21.375Z,61.13
2018-09-09T17:14:51.749Z,60.17
2018-09-09T17:17:22.409Z,60.68
2018-09-09T17:19:52.470Z,60.12
2018-09-09T17:22:23.648Z,60.84
2018-09-09T17:24:54.049Z,62.49
2018-09-09T17:27:23.881Z,62.42
2018-09-09T17:30:02.333Z,62.70
2018-09-09T17:32:33.340Z,62.80
2018-09-09T17:35:03.910Z,63.85
2018-09-09T17:37:33.526Z,64.27
2018-09-09T17:40:04.722Z,64.55
2018-09-09T17:42:34.435Z,64.51
2018-09-09T17:45:03.745Z,65.31
2018-09-09T17:47:37.403Z,64.32
2018-09-09T17:50:07.973Z,65.37
2018-09-09T17:52:37.694Z,64.31
2018-09-09T17:55:07.213Z,64.97
2018-09-09T17:57:38.203Z,64.81
2018-09-09T18:00:12.158Z,65.71
2018-09-09T18:02:41.608Z,65.68
2018-09-09T18:05:16.969Z,66.02
2018-09-09T18:07:46.537Z,66.20
2018-09-09T18:10:16.148Z,66.66
2018-09-09T18:12:45.790Z,66.43
2018-09-09T18:15:26.676Z,66.77
2018-09-09T18:17:57.472Z,67.77
2018-09-09T18:20:29.461Z,67.61
2018-09-09T18:22:59.863Z,67.85
2018-09-09T18:25:30.279Z,68.46
2018-09-09T18:28:00.155Z,68.63
2018-09-09T18:30:29.640Z,68.63
2018-09-09T18:32:59.457Z,68.61
2018-09-09T18:35:29.041Z,68.92
2018-09-09T18:37:58.658Z,68.33
2018-09-09T18:40:29.616Z,68.46
2018-09-09T18:43:00.955Z,68.41
2018-09-09T18:45:30.346Z,69.25
2018-09-09T18:47:59.857Z,69.13
2018-09-09T18:50:30.077Z,69.25
2018-09-09T18:52:59.495Z,69.98
2018-09-09T18:55:29.084Z,70.24
2018-09-09T18:57:59.161Z,69.62
2018-09-09T19:00:28.738Z,70.10
2018-09-09T19:02:58.366Z,70.06
2018-09-09T19:05:28.561Z,70.54
2018-09-09T19:07:58.374Z,70.84
2018-09-09T19:10:28.450Z,71.18
2018-09-09T19:12:58.387Z,71.83
2018-09-09T19:15:28.525Z,72.02
2018-09-09T19:17:58.136Z,71.79
2018-09-09T19:20:27.642Z,72.01
2018-09-09T19:22:57.255Z,72.42
2018-09-09T19:25:26.898Z,73.20
2018-09-09T19:27:56.915Z,73.24
2018-09-09T19:30:27.811Z,72.46
2018-09-09T19:32:57.653Z,73.23
2018-09-09T19:35:27.372Z,73.24
2018-09-09T19:37:57.493Z,73.28
2018-09-09T19:40:27.365Z,72.83
2018-09-09T19:42:57.476Z,72.97
2018-09-09T19:45:27.020Z,72.64
2018-09-09T19:47:56.720Z,72.46
2018-09-09T19:50:27.318Z,72.30
2018-09-09T19:52:56.919Z,71.97
2018-09-09T19:55:26.895Z,71.55
2018-09-09T19:57:56.693Z,71.73
2018-09-09T20:00:27.210Z,71.43
2018-09-09T20:02:56.803Z,71.93
2018-09-09T20:05:27.680Z,72.54
2018-09-09T20:07:59.231Z,71.93
2018-09-09T20:10:28.840Z,72.20
2018-09-09T20:12:59.060Z,71.44
2018-09-09T20:15:30.000Z,71.80
2018-09-09T20:18:00.589Z,71.93
2018-09-09T20:20:31.441Z,72.25
2018-09-09T20:23:01.746Z,70.83
2018-09-09T20:25:31.458Z,71.65
2018-09-09T20:28:00.962Z,70.88
2018-09-09T20:30:30.536Z,71.83
2018-09-09T20:33:00.225Z,70.80
2018-09-09T20:35:30.013Z,70.56
2018-09-09T20:37:59.404Z,70.60
2018-09-09T20:40:28.717Z,71.25
2018-09-09T20:43:04.466Z,70.84
2018-09-09T20:45:33.830Z,70.94
2018-09-09T20:48:03.085Z,69.59
2018-09-09T20:50:32.384Z,70.26
2018-09-09T20:53:01.882Z,70.39
2018-09-09T20:55:31.279Z,69.22
2018-09-09T20:58:02.277Z,69.99
2018-09-09T21:00:31.830Z,69.50
2018-09-09T21:03:01.229Z,69.65
2018-09-09T21:05:30.724Z,69.55
2018-09-09T21:08:00.196Z,69.54
2018-09-09T21:10:29.909Z,69.28
2018-09-09T21:12:59.630Z,68.95
2018-09-09T21:15:30.593Z,69.61
2018-09-09T21:18:00.335Z,68.83
2018-09-09T21:20:32.463Z,68.26
2018-09-09T21:23:01.944Z,68.87
2018-09-09T21:25:31.448Z,68.36
2018-09-09T21:28:01.093Z,67.89
2018-09-09T21:30:30.679Z,68.21
2018-09-09T21:33:00.529Z,69.21
2018-09-09T21:35:30.015Z,68.26
2018-09-09T21:38:00.649Z,68.92
2018-09-09T21:40:30.073Z,68.42
2018-09-09T21:43:00.416Z,68.43
2018-09-09T21:45:30.680Z,69.18
2018-09-09T21:48:00.589Z,68.29
2018-09-09T21:50:30.325Z,69.03
2018-09-09T21:53:00.649Z,69.25
2018-09-09T21:55:30.040Z,69.02
2018-09-09T21:57:59.678Z,68.43
2018-09-09T22:00:29.665Z,68.14
2018-09-09T22:02:59.453Z,69.15
2018-09-09T22:05:29.064Z,69.08
2018-09-09T22:07:58.697Z,69.02
2018-09-09T22:10:29.429Z,68.83
2018-09-09T22:13:09.457Z,68.52
2018-09-09T22:15:38.706Z,69.16
2018-09-09T22:18:08.026Z,69.27
2018-09-09T22:20:37.486Z,69.24
2018-09-09T22:23:06.885Z,69.27
2018-09-09T22:25:37.622Z,69.12
2018-09-09T22:28:08.679Z,68.70
2018-09-09T22:30:37.944Z,69.52
2018-09-09T22:33:07.425Z,69.62
2018-09-09T22:35:37.945Z,68.77
2018-09-09T22:38:07.499Z,68.59
2018-09-09T22:40:37.402Z,68.88
2018-09-09T22:43:06.848Z,67.66
2018-09-09T22:45:36.160Z,67.63
2018-09-09T22:48:05.564Z,67.47
2018-09-09T22:50:35.110Z,67.12
2018-09-09T22:53:04.547Z,67.58
2018-09-09T22:55:34.014Z,67.68
2018-09-09T22:58:04.342Z,67.43
2018-09-09T23:00:34.156Z,67.12
2018-09-09T23:03:03.480Z,67.27
2018-09-09T23:05:32.903Z,67.14
2018-09-09T23:08:02.794Z,67.76
2018-09-09T23:10:32.090Z,67.14
2018-09-09T23:13:02.212Z,67.64
2018-09-09T23:15:32.440Z,67.72
2018-09-09T23:18:02.038Z,67.32
2018-09-09T23:20:32.691Z,67.59
2018-09-09T23:23:02.120Z,68.59
2018-09-09T23:25:31.509Z,68.30
2018-09-09T23:28:01.070Z,67.84
2018-09-09T23:30:30.510Z,67.67
2018-09-09T23:32:59.895Z,66.96
2018-09-09T23:35:29.425Z,66.69
2018-09-09T23:37:58.988Z,67.23
2018-09-09T23:40:28.552Z,66.78
2018-09-09T23:42:58.773Z,66.49
2018-09-09T23:45:28.904Z,66.21
2018-09-09T23:47:58.255Z,66.90
2018-09-09T23:50:27.813Z,66.86
2018-09-09T23:52:57.315Z,65.92
2018-09-09T23:55:26.821Z,65.86
2018-09-09T23:57:57.269Z,66.20
